createdAt,value
2019-03-09T00:01:32.229Z,11.04
2019-03-09T00:07:29.102Z,11.09
2019-03-09T00:10:10.368Z,11.13
2019-03-09T00:12:59.211Z,11.10
2019-03-09T00:15:48.061Z,11.16
2019-03-09T00:18:36.989Z,11.18
2019-03-09T00:21:27.499Z,11.19
2019-03-09T00:24:35.363Z,10.96
2019-03-09T00:27:43.220Z,11.23
2019-03-09T00:33:31.209Z,11.24
2019-03-09T00:36:20.123Z,11.25
2019-03-09T00:39:09.148Z,10.85
2019-03-09T00:41:58.083Z,11.30
2019-03-09T00:44:46.923Z,11.32
2019-03-09T00:47:28.667Z,11.33
2019-03-09T00:49:58.174Z,11.36
2019-03-09T00:52:27.704Z,11.38
2019-03-09T00:54:57.150Z,11.39
2019-03-09T00:57:26.738Z,11.39
2019-03-09T00:59:57.757Z,11.40
2019-03-09T01:02:27.284Z,11.40
2019-03-09T01:04:56.864Z,11.38
2019-03-09T01:07:26.334Z,11.38
2019-03-09T01:09:55.842Z,11.34
2019-03-09T01:12:25.469Z,11.31
2019-03-09T01:14:54.976Z,11.30
2019-03-09T01:17:24.482Z,11.28
2019-03-09T01:19:53.977Z,11.24
2019-03-09T01:22:23.580Z,11.21
2019-03-09T01:24:53.116Z,11.19
2019-03-09T01:27:22.624Z,11.15
2019-03-09T01:29:52.236Z,11.12
2019-03-09T01:32:21.812Z,11.08
2019-03-09T01:34:51.347Z,11.04
2019-03-09T01:37:20.842Z,10.99
2019-03-09T01:39:50.407Z,10.94
2019-03-09T01:42:20.025Z,10.90
2019-03-09T01:44:49.612Z,10.86
2019-03-09T01:47:19.177Z,10.83
2019-03-09T01:49:48.662Z,10.79
2019-03-09T01:52:18.255Z,10.76
2019-03-09T01:54:47.735Z,10.75
2019-03-09T01:57:17.207Z,10.72
2019-03-09T01:59:46.713Z,10.69
2019-03-09T02:02:16.237Z,10.66
2019-03-09T02:04:45.848Z,10.64
2019-03-09T02:07:15.346Z,10.62
2019-03-09T02:09:44.931Z,10.60
2019-03-09T02:12:14.405Z,10.57
2019-03-09T02:14:43.970Z,10.55
2019-03-09T02:17:13.517Z,10.53
2019-03-09T02:19:43.051Z,10.52
2019-03-09T02:22:12.544Z,10.51
2019-03-09T02:24:42.027Z,10.49
2019-03-09T02:27:11.528Z,10.48
2019-03-09T02:29:41.026Z,10.46
2019-03-09T02:32:10.557Z,10.43
2019-03-09T02:34:40.053Z,10.45
2019-03-09T02:37:09.555Z,10.43
2019-03-09T02:39:40.713Z,10.44
2019-03-09T02:42:10.242Z,10.44
2019-03-09T02:44:39.814Z,10.43
2019-03-09T02:47:09.293Z,10.43
2019-03-09T02:49:38.796Z,10.42
2019-03-09T02:52:09.892Z,10.42
2019-03-09T02:54:39.368Z,10.40
2019-03-09T02:57:08.871Z,10.38
2019-03-09T02:59:38.327Z,10.36
2019-03-09T03:02:18.626Z,10.36
2019-03-09T03:04:48.141Z,10.35
2019-03-09T03:07:17.640Z,10.35
2019-03-09T03:09:47.101Z,10.35
2019-03-09T03:12:16.579Z,10.35
2019-03-09T03:14:46.109Z,10.34
2019-03-09T03:17:15.557Z,10.35
2019-03-09T03:19:45.121Z,10.35
2019-03-09T03:22:14.663Z,10.34
2019-03-09T03:24:44.307Z,10.35
2019-03-09T03:27:13.787Z,10.35
2019-03-09T03:29:43.296Z,10.35
2019-03-09T03:32:12.778Z,10.36
2019-03-09T03:34:42.316Z,10.38
2019-03-09T03:37:11.863Z,10.37
2019-03-09T03:39:41.378Z,10.37
2019-03-09T03:42:10.894Z,10.38
2019-03-09T03:44:46.294Z,10.38
2019-03-09T03:47:15.938Z,10.39
2019-03-09T03:49:45.537Z,10.39
2019-03-09T03:52:14.991Z,10.41
2019-03-09T03:54:44.575Z,10.42
2019-03-09T03:57:14.068Z,10.44
2019-03-09T03:59:43.681Z,10.46
2019-03-09T04:02:13.260Z,10.48
2019-03-09T04:04:42.746Z,10.50
2019-03-09T04:07:12.311Z,10.52
2019-03-09T04:09:41.958Z,10.53
2019-03-09T04:12:11.448Z,10.55
2019-03-09T04:14:41.019Z,10.56
2019-03-09T04:17:10.522Z,10.59
2019-03-09T04:19:39.990Z,10.62
2019-03-09T04:22:09.494Z,10.62
2019-03-09T04:24:39.622Z,10.63
2019-03-09T04:27:09.203Z,10.66
2019-03-09T04:29:38.658Z,10.69
2019-03-09T04:32:08.164Z,10.70
2019-03-09T04:34:37.727Z,10.72
2019-03-09T04:37:07.211Z,10.74
2019-03-09T04:39:36.709Z,10.76
2019-03-09T04:42:06.173Z,10.78
2019-03-09T04:44:35.699Z,10.80
2019-03-09T04:47:05.150Z,10.82
2019-03-09T04:49:34.661Z,10.82
2019-03-09T04:52:04.234Z,10.86
2019-03-09T04:54:33.720Z,10.87
2019-03-09T04:57:03.215Z,10.87
2019-03-09T04:59:32.702Z,10.88
2019-03-09T05:02:02.195Z,10.87
2019-03-09T05:04:44.748Z,10.88
2019-03-09T05:07:19.213Z,10.90
2019-03-09T05:10:02.432Z,10.92
2019-03-09T05:12:33.045Z,10.94
2019-03-09T05:15:02.506Z,10.97
2019-03-09T05:17:32.012Z,10.99
2019-03-09T05:20:01.496Z,11.02
2019-03-09T05:22:30.979Z,11.03
2019-03-09T05:25:00.454Z,11.05
2019-03-09T05:27:29.965Z,11.06
2019-03-09T05:29:59.434Z,11.07
2019-03-09T05:32:29.018Z,11.09
2019-03-09T05:34:58.505Z,11.11
2019-03-09T05:37:27.980Z,11.13
2019-03-09T05:39:57.459Z,11.16
2019-03-09T05:42:26.949Z,11.18
2019-03-09T05:44:56.452Z,11.19
2019-03-09T05:47:26.026Z,11.21
2019-03-09T05:49:55.533Z,11.24
2019-03-09T05:52:31.313Z,11.28
2019-03-09T05:55:00.803Z,11.29
2019-03-09T05:57:30.304Z,11.32
2019-03-09T05:59:59.776Z,11.34
2019-03-09T06:02:29.238Z,11.35
2019-03-09T06:04:58.728Z,11.37
2019-03-09T06:07:28.208Z,11.38
2019-03-09T06:09:57.701Z,11.41
2019-03-09T06:12:27.194Z,11.41
2019-03-09T06:14:56.673Z,11.43
2019-03-09T06:17:26.165Z,11.45
2019-03-09T06:19:55.632Z,11.45
2019-03-09T06:22:25.163Z,11.44
2019-03-09T06:24:54.624Z,11.44
2019-03-09T06:27:24.149Z,11.41
2019-03-09T06:29:53.616Z,11.40
2019-03-09T06:32:36.895Z,11.41
2019-03-09T06:35:17.190Z,11.40
2019-03-09T06:37:56.638Z,11.40
2019-03-09T06:40:26.142Z,11.41
2019-03-09T06:42:55.647Z,11.44
2019-03-09T06:45:25.135Z,11.45
2019-03-09T06:47:54.627Z,11.46
2019-03-09T06:50:24.197Z,11.50
2019-03-09T06:52:53.684Z,11.55
2019-03-09T06:55:23.195Z,11.59
2019-03-09T06:57:52.675Z,11.64
2019-03-09T07:00:35.018Z,11.69
2019-03-09T07:03:05.036Z,11.74
2019-03-09T07:05:34.551Z,11.78
2019-03-09T07:08:04.021Z,11.84
2019-03-09T07:10:33.859Z,11.87
2019-03-09T07:13:03.381Z,11.90
2019-03-09T07:15:36.635Z,11.94
2019-03-09T07:18:56.334Z,11.97
2019-03-09T07:21:45.133Z,11.99
2019-03-09T07:24:34.012Z,11.75
2019-03-09T07:27:22.796Z,12.03
2019-03-09T07:30:32.534Z,12.06
2019-03-09T07:33:21.481Z,11.78
2019-03-09T07:36:10.314Z,12.12
2019-03-09T07:38:59.160Z,11.83
2019-03-09T07:41:48.003Z,12.19
2019-03-09T07:44:36.871Z,12.22
2019-03-09T07:47:25.752Z,12.26
2019-03-09T07:50:33.915Z,12.29
2019-03-09T07:53:15.372Z,12.34
2019-03-09T07:56:04.212Z,12.39
2019-03-09T07:58:45.987Z,12.42
2019-03-09T08:01:34.831Z,12.46
2019-03-09T08:04:23.663Z,12.50
2019-03-09T08:07:12.494Z,12.55
2019-03-09T08:10:01.401Z,12.59
2019-03-09T08:12:50.257Z,12.62
2019-03-09T08:15:39.124Z,12.64
2019-03-09T08:18:27.978Z,12.66
2019-03-09T08:21:16.837Z,12.70
2019-03-09T08:24:05.722Z,12.72
2019-03-09T08:26:54.581Z,12.74
2019-03-09T08:29:43.491Z,12.78
2019-03-09T08:32:32.350Z,12.81
2019-03-09T08:35:21.445Z,12.63
2019-03-09T08:38:10.278Z,12.88
2019-03-09T08:40:59.138Z,12.91
2019-03-09T08:43:48.015Z,12.53
2019-03-09T08:46:36.853Z,12.98
2019-03-09T08:49:25.721Z,13.01
2019-03-09T08:52:14.556Z,13.05
2019-03-09T08:55:24.142Z,13.08
2019-03-09T08:57:53.627Z,13.12
2019-03-09T09:00:26.460Z,13.14
2019-03-09T09:02:56.191Z,13.17
2019-03-09T09:05:25.761Z,13.19
2019-03-09T09:07:55.360Z,13.22
2019-03-09T09:10:24.981Z,13.26
2019-03-09T09:12:54.660Z,13.29
2019-03-09T09:15:24.301Z,13.32
2019-03-09T09:17:53.946Z,13.35
2019-03-09T09:20:26.739Z,13.38
2019-03-09T09:22:56.270Z,13.43
2019-03-09T09:25:25.834Z,13.49
2019-03-09T09:27:55.453Z,13.54
2019-03-09T09:30:30.727Z,13.54
2019-03-09T09:33:00.368Z,13.58
2019-03-09T09:35:29.989Z,13.59
2019-03-09T09:37:59.532Z,13.61
2019-03-09T09:40:29.122Z,13.63
2019-03-09T09:42:58.663Z,13.66
2019-03-09T09:45:28.231Z,13.68
2019-03-09T09:47:57.791Z,13.74
2019-03-09T09:50:27.292Z,13.78
2019-03-09T09:52:56.882Z,13.83
2019-03-09T09:55:26.386Z,13.87
2019-03-09T09:57:55.890Z,13.92
2019-03-09T10:00:29.316Z,13.96
2019-03-09T10:02:58.854Z,14.00
2019-03-09T10:05:28.383Z,14.04
2019-03-09T10:07:58.077Z,14.08
2019-03-09T10:10:29.747Z,14.11
2019-03-09T10:12:58.899Z,14.13
2019-03-09T10:15:33.278Z,14.18
2019-03-09T10:18:02.815Z,14.22
2019-03-09T10:20:32.328Z,14.26
2019-03-09T10:23:04.705Z,14.29
2019-03-09T10:25:33.186Z,14.35
2019-03-09T10:28:02.676Z,14.39
2019-03-09T10:30:32.398Z,14.47
2019-03-09T10:33:01.952Z,14.53
2019-03-09T10:35:31.458Z,14.60
2019-03-09T10:38:01.007Z,14.65
2019-03-09T10:40:30.646Z,14.70
2019-03-09T10:43:00.105Z,14.75
2019-03-09T10:45:29.632Z,14.80
2019-03-09T10:47:59.126Z,14.84
2019-03-09T10:50:31.383Z,14.87
2019-03-09T10:53:00.848Z,14.88
2019-03-09T10:55:36.610Z,14.89
2019-03-09T10:58:06.318Z,14.91
2019-03-09T11:00:45.040Z,14.93
2019-03-09T11:03:14.663Z,14.96
2019-03-09T11:05:44.328Z,15.00
2019-03-09T11:08:13.923Z,15.02
2019-03-09T11:10:43.412Z,15.05
2019-03-09T11:13:13.045Z,15.07
2019-03-09T11:15:42.511Z,15.10
2019-03-09T11:18:11.985Z,15.12
2019-03-09T11:20:41.578Z,15.14
2019-03-09T11:23:12.154Z,15.16
2019-03-09T11:25:41.830Z,15.20
2019-03-09T11:28:13.541Z,15.24
2019-03-09T11:30:50.495Z,15.28
2019-03-09T11:33:20.092Z,15.33
2019-03-09T11:35:49.597Z,15.39
2019-03-09T11:38:19.094Z,15.43
2019-03-09T11:40:56.868Z,15.48
2019-03-09T11:43:19.901Z,15.53
2019-03-09T11:45:49.454Z,15.58
2019-03-09T11:48:18.936Z,15.63
2019-03-09T11:50:48.504Z,15.63
2019-03-09T11:53:18.020Z,15.66
2019-03-09T11:55:47.509Z,15.71
2019-03-09T11:58:17.115Z,15.76
2019-03-09T12:00:51.117Z,15.83
2019-03-09T12:03:20.637Z,15.90
2019-03-09T12:05:50.248Z,15.96
2019-03-09T12:08:19.830Z,15.99
2019-03-09T12:10:49.340Z,16.01
2019-03-09T12:13:18.947Z,16.02
2019-03-09T12:15:48.591Z,16.00
2019-03-09T12:18:18.148Z,16.00
2019-03-09T12:20:47.644Z,16.02
2019-03-09T12:23:23.028Z,16.08
2019-03-09T12:25:52.831Z,16.14
2019-03-09T12:28:22.415Z,16.21
2019-03-09T12:30:51.974Z,16.28
2019-03-09T12:33:21.479Z,16.34
2019-03-09T12:35:51.025Z,16.41
2019-03-09T12:38:20.582Z,16.48
2019-03-09T12:40:50.077Z,16.57
2019-03-09T12:43:19.649Z,16.63
2019-03-09T12:45:49.256Z,16.66
2019-03-09T12:48:18.903Z,16.63
2019-03-09T12:50:48.409Z,16.59
2019-03-09T12:53:17.913Z,16.54
2019-03-09T12:55:47.464Z,16.51
2019-03-09T12:58:17.016Z,16.50
2019-03-09T13:00:46.573Z,16.49
2019-03-09T13:03:16.174Z,16.49
2019-03-09T13:05:46.751Z,16.50
2019-03-09T13:08:16.528Z,16.52
2019-03-09T13:10:46.112Z,16.50
2019-03-09T13:13:15.665Z,16.48
2019-03-09T13:15:45.253Z,16.45
2019-03-09T13:18:14.718Z,16.43
2019-03-09T13:20:44.230Z,16.42
2019-03-09T13:23:13.727Z,16.38
2019-03-09T13:25:43.353Z,16.34
2019-03-09T13:28:12.843Z,16.31
2019-03-09T13:30:43.228Z,16.29
2019-03-09T13:33:12.728Z,16.27
2019-03-09T13:35:42.308Z,16.24
2019-03-09T13:38:11.885Z,16.23
2019-03-09T13:40:41.361Z,16.22
2019-03-09T13:43:10.965Z,16.23
2019-03-09T13:45:40.505Z,16.23
2019-03-09T13:48:10.032Z,16.23
2019-03-09T13:50:39.486Z,16.25
2019-03-09T13:53:08.991Z,16.29
2019-03-09T13:55:38.594Z,16.30
2019-03-09T13:58:08.217Z,16.33
2019-03-09T14:00:40.750Z,16.33
2019-03-09T14:03:09.017Z,16.32
2019-03-09T14:05:38.526Z,16.31
2019-03-09T14:08:08.017Z,16.27
2019-03-09T14:10:43.221Z,16.22
2019-03-09T14:13:12.804Z,16.14
2019-03-09T14:15:42.295Z,15.97
2019-03-09T14:18:11.866Z,15.77
2019-03-09T14:20:41.386Z,15.56
2019-03-09T14:23:10.923Z,15.38
2019-03-09T14:25:40.441Z,15.23
2019-03-09T14:28:09.935Z,15.07
2019-03-09T14:30:39.424Z,14.93
2019-03-09T14:33:08.911Z,14.82
2019-03-09T14:35:38.522Z,14.73
2019-03-09T14:38:08.174Z,14.70
2019-03-09T14:40:37.691Z,14.69
2019-03-09T14:43:07.225Z,14.68
2019-03-09T14:45:36.738Z,14.66
2019-03-09T14:48:06.267Z,14.65
2019-03-09T14:50:35.796Z,14.61
2019-03-09T14:53:05.383Z,14.62
2019-03-09T14:55:34.861Z,14.63
2019-03-09T14:58:04.463Z,14.64
2019-03-09T15:00:34.071Z,14.64
2019-03-09T15:03:03.599Z,14.62
2019-03-09T15:05:33.174Z,14.61
2019-03-09T15:08:02.689Z,14.59
2019-03-09T15:10:32.289Z,14.56
2019-03-09T15:13:01.882Z,14.50
2019-03-09T15:15:31.474Z,14.48
2019-03-09T15:18:00.991Z,14.48
2019-03-09T15:20:30.607Z,14.49
2019-03-09T15:23:00.112Z,14.53
2019-03-09T15:25:31.435Z,14.59
2019-03-09T15:28:01.033Z,14.65
2019-03-09T15:30:30.603Z,14.70
2019-03-09T15:33:00.166Z,14.77
2019-03-09T15:35:29.641Z,14.82
2019-03-09T15:37:59.249Z,14.85
2019-03-09T15:40:28.872Z,14.88
2019-03-09T15:42:58.401Z,14.86
2019-03-09T15:45:27.935Z,14.83
2019-03-09T15:47:57.537Z,14.77
2019-03-09T15:50:27.242Z,14.72
2019-03-09T15:52:56.931Z,14.66
2019-03-09T15:55:26.552Z,14.59
2019-03-09T15:57:56.131Z,14.53
2019-03-09T16:00:25.861Z,14.46
2019-03-09T16:02:55.598Z,14.39
2019-03-09T16:05:25.114Z,14.32
2019-03-09T16:39:01.420Z,12.77
2019-03-09T16:41:33.061Z,12.89
2019-03-09T16:44:02.132Z,13.01
2019-03-09T16:46:31.709Z,13.09
2019-03-09T16:49:01.211Z,13.18
2019-03-09T16:51:30.780Z,13.26
2019-03-09T16:54:00.280Z,13.31
2019-03-09T16:56:29.893Z,13.40
2019-03-09T16:58:59.369Z,13.44
2019-03-09T17:01:28.924Z,13.49
2019-03-09T17:03:58.504Z,13.52
2019-03-09T17:06:28.027Z,13.54
2019-03-09T17:08:57.575Z,13.50
2019-03-09T17:11:27.123Z,13.37
2019-03-09T17:13:56.636Z,13.18
2019-03-09T17:16:26.240Z,12.96
2019-03-09T17:18:55.756Z,12.73
2019-03-09T17:21:25.254Z,12.51
2019-03-09T17:23:54.736Z,12.28
2019-03-09T17:26:24.300Z,12.06
2019-03-09T17:28:53.773Z,11.86
2019-03-09T17:31:23.309Z,11.70
2019-03-09T17:33:52.879Z,11.56
2019-03-09T17:36:22.411Z,11.45
2019-03-09T17:38:51.894Z,11.33
2019-03-09T17:41:21.405Z,11.27
2019-03-09T17:43:50.958Z,11.21
2019-03-09T17:46:20.504Z,11.16
2019-03-09T17:48:49.966Z,11.11
2019-03-09T17:51:19.465Z,11.08
2019-03-09T17:53:48.956Z,11.04
2019-03-09T17:56:18.532Z,11.02
2019-03-09T17:58:48.107Z,11.00
2019-03-09T18:01:17.635Z,10.98
2019-03-09T18:03:47.157Z,10.96
2019-03-09T18:06:16.632Z,10.94
2019-03-09T18:08:46.125Z,10.94
2019-03-09T18:11:15.596Z,10.95
2019-03-09T18:13:45.104Z,10.96
2019-03-09T18:16:14.571Z,10.98
2019-03-09T18:18:44.100Z,11.00
2019-03-09T18:21:13.723Z,11.02
2019-03-09T18:24:02.647Z,11.04
2019-03-09T18:26:32.122Z,11.05
2019-03-09T18:29:01.622Z,11.06
2019-03-09T18:31:31.113Z,11.09
2019-03-09T18:34:00.649Z,11.09
2019-03-09T18:36:30.180Z,11.11
2019-03-09T18:38:59.642Z,11.12
2019-03-09T18:41:29.169Z,11.13
2019-03-09T18:43:58.638Z,11.14
2019-03-09T18:46:28.151Z,11.14
2019-03-09T18:48:57.660Z,11.13
2019-03-09T18:51:27.127Z,11.14
2019-03-09T18:53:56.691Z,11.12
2019-03-09T18:56:45.600Z,11.09
2019-03-09T18:59:15.069Z,11.07
2019-03-09T19:01:56.622Z,11.04
2019-03-09T19:04:26.118Z,11.00
2019-03-09T19:06:55.614Z,10.98
2019-03-09T19:09:25.109Z,10.93
2019-03-09T19:11:54.711Z,10.92
2019-03-09T19:14:24.215Z,10.88
2019-03-09T19:16:53.692Z,10.84
2019-03-09T19:19:23.259Z,10.81
2019-03-09T19:21:52.832Z,10.77
2019-03-09T19:24:22.366Z,10.74
2019-03-09T19:26:51.863Z,10.71
2019-03-09T19:29:21.615Z,10.66
2019-03-09T19:31:51.189Z,10.62
2019-03-09T19:34:40.104Z,10.59
2019-03-09T19:37:09.625Z,10.54
2019-03-09T19:39:39.106Z,10.50
2019-03-09T19:42:08.745Z,10.46
2019-03-09T19:44:38.268Z,10.42
2019-03-09T19:47:07.747Z,10.37
2019-03-09T19:49:37.254Z,10.31
2019-03-09T19:52:06.870Z,10.26
2019-03-09T19:54:36.410Z,10.22
2019-03-09T19:57:05.940Z,10.18
2019-03-09T19:59:35.523Z,10.14
2019-03-09T20:02:05.060Z,10.10
2019-03-09T20:04:34.687Z,10.08
2019-03-09T20:07:04.212Z,10.07
2019-03-09T20:09:53.071Z,10.06
2019-03-09T20:12:22.627Z,10.07
2019-03-09T20:14:52.307Z,10.09
2019-03-09T20:17:21.764Z,10.12
2019-03-09T20:19:51.367Z,10.14
2019-03-09T20:22:20.834Z,10.18
2019-03-09T20:24:50.343Z,10.22
2019-03-09T20:27:19.898Z,10.28
2019-03-09T20:29:49.408Z,10.33
2019-03-09T20:32:19.011Z,10.40
2019-03-09T20:34:48.487Z,10.44
2019-03-09T20:37:17.999Z,10.48
2019-03-09T20:39:47.567Z,10.52
2019-03-09T20:42:17.146Z,10.56
2019-03-09T20:44:46.656Z,10.59
2019-03-09T20:47:16.204Z,10.64
2019-03-09T20:49:45.784Z,10.69
2019-03-09T20:52:15.365Z,10.73
2019-03-09T20:54:44.860Z,10.76
2019-03-09T20:57:14.383Z,10.79
2019-03-09T20:59:43.903Z,10.82
2019-03-09T21:02:13.377Z,10.84
2019-03-09T21:04:42.958Z,10.88
2019-03-09T21:07:12.569Z,10.90
2019-03-09T21:09:42.091Z,10.94
2019-03-09T21:12:11.754Z,10.98
2019-03-09T21:14:41.395Z,10.99
2019-03-09T21:17:10.936Z,11.03
2019-03-09T21:19:40.449Z,11.06
2019-03-09T21:22:09.956Z,11.10
2019-03-09T21:24:39.558Z,11.13
2019-03-09T21:27:09.047Z,11.16
2019-03-09T21:29:38.580Z,11.18
2019-03-09T21:32:08.091Z,11.22
2019-03-09T21:34:37.591Z,11.24
2019-03-09T21:37:27.020Z,11.26
2019-03-09T21:39:56.640Z,11.29
2019-03-09T21:42:26.258Z,11.31
2019-03-09T21:44:55.774Z,11.32
2019-03-09T21:47:25.319Z,11.34
2019-03-09T21:49:54.864Z,11.37
2019-03-09T21:52:24.322Z,11.37
2019-03-09T21:54:53.933Z,11.40
2019-03-09T21:57:23.561Z,11.41
2019-03-09T21:59:53.033Z,11.42
2019-03-09T22:02:22.547Z,11.44
2019-03-09T22:04:52.082Z,11.46
2019-03-09T22:07:21.661Z,11.47
2019-03-09T22:09:51.170Z,11.47
2019-03-09T22:12:20.672Z,11.48
2019-03-09T22:14:50.280Z,11.48
2019-03-09T22:17:19.786Z,11.49
2019-03-09T22:19:49.276Z,11.49
2019-03-09T22:22:18.851Z,11.51
2019-03-09T22:24:48.342Z,11.50
2019-03-09T22:27:17.801Z,11.50
2019-03-09T22:29:47.302Z,11.50
2019-03-09T22:32:16.913Z,11.50
2019-03-09T22:34:46.384Z,11.48
2019-03-09T22:37:15.964Z,11.47
2019-03-09T22:39:45.468Z,11.44
2019-03-09T22:42:15.059Z,11.42
2019-03-09T22:44:44.550Z,11.40
2019-03-09T22:47:14.063Z,11.39
2019-03-09T22:49:43.581Z,11.36
2019-03-09T22:52:13.132Z,11.33
2019-03-09T22:54:42.677Z,11.33
2019-03-09T22:57:12.266Z,11.31
2019-03-09T22:59:41.723Z,11.31
2019-03-09T23:02:11.758Z,11.29
2019-03-09T23:04:41.238Z,11.28
2019-03-09T23:07:10.824Z,11.28
2019-03-09T23:09:40.306Z,11.28
2019-03-09T23:12:29.191Z,11.28
2019-03-09T23:14:58.640Z,11.27
2019-03-09T23:17:28.113Z,11.27
2019-03-09T23:19:57.613Z,11.27
2019-03-09T23:22:28.348Z,11.27
2019-03-09T23:24:57.877Z,11.28
2019-03-09T23:27:27.363Z,11.28
2019-03-09T23:29:56.870Z,11.28
2019-03-09T23:32:26.404Z,11.28
2019-03-09T23:34:55.864Z,11.28
2019-03-09T23:37:25.515Z,11.28
2019-03-09T23:39:55.108Z,11.28
2019-03-09T23:42:24.656Z,11.29
2019-03-09T23:44:54.249Z,11.29
2019-03-09T23:47:23.798Z,11.30
2019-03-09T23:49:53.304Z,11.30
2019-03-09T23:52:22.790Z,11.32
2019-03-09T23:54:52.450Z,11.31
2019-03-09T23:57:21.976Z,11.33
2019-03-09T23:59:51.497Z,11.34
